createdAt,value
2022-08-28T00:00:20.500Z,14.1
2022-08-28T00:02:22.449Z,13.9
2022-08-28T00:04:24.394Z,13.7
2022-08-28T00:06:26.265Z,13.8
2022-08-28T00:08:28.204Z,13.8
2022-08-28T00:10:33.240Z,13.6
2022-08-28T00:12:35.168Z,13.6
2022-08-28T00:14:37.102Z,13.9
2022-08-28T00:16:39.061Z,13.7
2022-08-28T00:18:41.003Z,13.5
2022-08-28T00:20:42.899Z,13.3
2022-08-28T00:22:44.816Z,13.6
2022-08-28T00:24:49.921Z,13.5
2022-08-28T00:26:51.843Z,13.6
2022-08-28T00:28:53.773Z,13.6
2022-08-28T00:32:57.647Z,13.7
2022-08-28T00:34:59.594Z,13.8
2022-08-28T00:37:01.538Z,13.6
2022-08-28T00:39:06.576Z,13.7
2022-08-28T00:41:08.500Z,13.6
2022-08-28T00:43:10.434Z,13.6
2022-08-28T00:44:12.951Z,13.7
2022-08-28T00:46:14.935Z,13.5
2022-08-28T00:48:16.839Z,13.7
2022-08-28T00:50:18.769Z,13.7
2022-08-28T00:52:23.809Z,13.3
2022-08-28T00:54:25.741Z,13.5
2022-08-28T00:56:27.701Z,13.4
2022-08-28T00:58:29.612Z,13.6
2022-08-28T01:00:31.536Z,13.4
2022-08-28T01:02:33.539Z,13.3
2022-08-28T01:04:35.374Z,13.2
2022-08-28T01:06:40.438Z,13.2
2022-08-28T01:08:42.387Z,13.3
2022-08-28T01:10:44.277Z,13.2
2022-08-28T01:12:46.211Z,13.2
2022-08-28T01:14:48.171Z,13.2
2022-08-28T01:16:50.104Z,13.2
2022-08-28T01:18:52.039Z,13.3
2022-08-28T01:20:57.120Z,13.2
2022-08-28T01:22:59.037Z,13.2
2022-08-28T01:25:00.979Z,13.3
2022-08-28T01:27:02.924Z,13.4
2022-08-28T01:31:06.816Z,13.1
2022-08-28T01:33:08.667Z,13.2
2022-08-28T01:35:15.270Z,13.3
2022-08-28T01:37:17.255Z,13.1
2022-08-28T01:39:19.272Z,13.1
2022-08-28T01:41:47.910Z,13.1
2022-08-28T01:47:56.815Z,13.1
2022-08-28T01:52:00.690Z,13.4
2022-08-28T01:54:02.615Z,13.2
2022-08-28T02:00:08.371Z,13.3
2022-08-28T02:02:13.443Z,13.1
2022-08-28T02:06:17.327Z,13
2022-08-28T02:08:19.242Z,13
2022-08-28T02:10:21.190Z,13
2022-08-28T02:16:30.197Z,13
2022-08-28T02:20:34.040Z,13
2022-08-28T02:22:35.973Z,13
2022-08-28T02:24:37.904Z,12.9
2022-08-28T02:26:39.796Z,13
2022-08-28T02:28:41.735Z,12.9
2022-08-28T02:30:46.926Z,12.8
2022-08-28T02:32:48.716Z,13
2022-08-28T02:34:50.694Z,12.9
2022-08-28T02:35:53.204Z,12.8
2022-08-28T02:37:55.490Z,12.9
2022-08-28T02:39:57.146Z,12.8
2022-08-28T02:41:59.113Z,12.7
2022-08-28T02:44:04.285Z,12.8
2022-08-28T02:46:06.281Z,12.8
2022-08-28T02:48:12.050Z,12.8
2022-08-28T02:50:10.773Z,12.9
2022-08-28T02:52:12.687Z,12.8
2022-08-28T03:00:23.519Z,12.7
2022-08-28T03:02:25.498Z,12.7
2022-08-28T03:04:27.477Z,12.8
2022-08-28T03:06:29.428Z,12.8
2022-08-28T03:08:31.469Z,12.9
2022-08-28T03:10:33.442Z,12.8
2022-08-28T03:12:38.577Z,12.8
2022-08-28T03:14:40.620Z,12.9
2022-08-28T03:16:42.629Z,12.9
2022-08-28T03:24:50.364Z,12.8
2022-08-28T03:30:59.589Z,12.8
2022-08-28T03:32:02.181Z,12.8
2022-08-28T03:36:06.025Z,12.8
2022-08-28T03:40:13.172Z,12.8
2022-08-28T03:42:15.156Z,12.9
2022-08-28T03:46:19.061Z,12.8
2022-08-28T03:54:30.301Z,12.9
2022-08-28T03:56:32.230Z,12.7
2022-08-28T04:00:36.201Z,12.9
2022-08-28T04:04:40.206Z,12.8
2022-08-28T04:06:42.137Z,13
2022-08-28T04:08:47.329Z,13
2022-08-28T04:10:49.239Z,12.8
2022-08-28T04:12:51.201Z,12.7
2022-08-28T04:14:53.144Z,12.9
2022-08-28T04:16:57.587Z,12.9
2022-08-28T04:20:59.151Z,12.7
2022-08-28T04:23:04.316Z,12.9
2022-08-28T04:28:10.819Z,12.9
2022-08-28T04:30:12.691Z,12.9
2022-08-28T04:32:14.719Z,12.9
2022-08-28T04:34:16.640Z,12.9
2022-08-28T04:36:21.832Z,12.8
2022-08-28T04:38:23.771Z,12.9
2022-08-28T04:40:25.880Z,12.8
2022-08-28T04:42:27.741Z,12.9
2022-08-28T04:44:29.807Z,12.7
2022-08-28T04:46:31.750Z,12.8
2022-08-28T04:48:33.770Z,13
2022-08-28T04:50:38.930Z,13.1
2022-08-28T04:52:40.880Z,12.9
2022-08-28T04:54:42.893Z,12.9
2022-08-28T04:56:44.847Z,13.1
2022-08-28T04:58:46.779Z,13
2022-08-28T05:00:48.795Z,13.1
2022-08-28T05:02:50.646Z,12.9
2022-08-28T05:08:59.941Z,13.1
2022-08-28T05:11:01.842Z,13.1
2022-08-28T05:13:03.868Z,13.3
2022-08-28T05:15:05.959Z,13.2
2022-08-28T05:17:07.733Z,13.5
2022-08-28T05:19:12.809Z,13.3
2022-08-28T05:21:14.741Z,13.4
2022-08-28T05:25:45.345Z,15.3
2022-08-28T05:27:47.300Z,15.5
2022-08-28T05:29:49.228Z,16.6
2022-08-28T05:31:54.298Z,17.3
2022-08-28T05:33:56.197Z,17.4
2022-08-28T05:35:58.281Z,16.4
2022-08-28T05:38:00.017Z,15.4
2022-08-28T05:40:02.067Z,14.8
2022-08-28T05:42:03.872Z,14.8
2022-08-28T05:44:05.818Z,14.6
2022-08-28T05:46:11.643Z,14.7
2022-08-28T05:48:12.993Z,14.7
2022-08-28T05:50:14.706Z,14.6
2022-08-28T05:52:16.610Z,14.8
2022-08-28T05:56:20.478Z,14.9
2022-08-28T05:58:22.413Z,15
2022-08-28T06:00:27.451Z,15.3
2022-08-28T06:02:29.407Z,15.1
2022-08-28T06:04:31.371Z,15.2
2022-08-28T06:06:33.243Z,15.2
2022-08-28T06:08:35.189Z,15.4
2022-08-28T06:10:37.106Z,15.5
2022-08-28T06:12:39.042Z,15.4
2022-08-28T06:14:44.076Z,16.2
2022-08-28T06:16:46.033Z,16.4
2022-08-28T06:18:47.930Z,16.4
2022-08-28T06:19:50.490Z,16.3
2022-08-28T06:21:52.500Z,16.4
2022-08-28T06:23:54.333Z,16.7
2022-08-28T06:25:56.217Z,16.5
2022-08-28T06:28:01.282Z,16.8
2022-08-28T06:30:03.202Z,16.7
2022-08-28T06:32:05.236Z,17.3
2022-08-28T06:34:07.030Z,16.9
2022-08-28T06:38:10.853Z,17.4
2022-08-28T06:40:12.777Z,16.9
2022-08-28T06:42:17.797Z,17
2022-08-28T06:44:19.709Z,17.2
2022-08-28T06:46:21.708Z,17.3
2022-08-28T06:50:25.391Z,17.4
2022-08-28T06:52:27.295Z,17.5
2022-08-28T06:54:29.179Z,17.5
2022-08-28T06:56:34.206Z,18.3
2022-08-28T06:58:36.104Z,17.8
2022-08-28T07:00:37.990Z,18.6
2022-08-28T07:02:39.929Z,19.9
2022-08-28T07:04:41.864Z,20.3
2022-08-28T07:06:43.652Z,20.2
2022-08-28T07:08:45.531Z,20.5
2022-08-28T07:10:50.562Z,19.2
2022-08-28T07:12:52.422Z,18.5
2022-08-28T07:14:54.293Z,18.2
2022-08-28T07:15:56.861Z,18
2022-08-28T07:17:58.685Z,18.3
2022-08-28T07:20:00.532Z,18.2
2022-08-28T07:22:02.440Z,17.7
2022-08-28T07:24:08.996Z,17.7
2022-08-28T07:26:10.839Z,18
2022-08-28T07:28:12.940Z,18.2
2022-08-28T07:30:14.601Z,18.1
2022-08-28T07:32:16.474Z,18.7
2022-08-28T07:34:18.320Z,18.6
2022-08-28T07:38:25.207Z,18.8
2022-08-28T07:46:32.703Z,18.1
2022-08-28T07:48:34.574Z,18
2022-08-28T07:54:43.341Z,18.1
2022-08-28T07:58:47.106Z,18.3
2022-08-28T08:06:58.277Z,18.6
2022-08-28T08:11:01.444Z,18.4
2022-08-28T08:12:03.987Z,18.6
2022-08-28T08:14:05.901Z,18.5
2022-08-28T08:18:09.604Z,18.5
2022-08-28T08:20:14.605Z,17.9
2022-08-28T08:30:23.947Z,19.2
2022-08-28T08:44:40.163Z,19.9
2022-08-28T08:46:42.114Z,19.8
2022-08-28T08:48:47.072Z,19.1
2022-08-28T08:50:48.902Z,19.6
2022-08-28T08:52:50.772Z,20.1
2022-08-28T08:54:55.402Z,20
2022-08-28T08:56:54.448Z,19.8
2022-08-28T08:58:56.296Z,20.3
2022-08-28T09:00:58.146Z,20.4
2022-08-28T09:03:03.180Z,20.1
2022-08-28T09:05:05.019Z,19.8
2022-08-28T09:07:06.904Z,20
2022-08-28T09:09:35.308Z,20.1
2022-08-28T09:11:37.172Z,20
2022-08-28T09:13:38.994Z,19.5
2022-08-28T09:15:46.318Z,19.9
2022-08-28T09:17:45.869Z,19.4
2022-08-28T09:19:47.706Z,19.5
2022-08-28T09:21:49.576Z,19.4
2022-08-28T09:23:51.409Z,19.1
2022-08-28T09:25:53.255Z,19.2
2022-08-28T09:27:55.123Z,19.4
2022-08-28T09:30:07.579Z,19.3
2022-08-28T09:34:03.826Z,19.5
2022-08-28T09:36:05.851Z,19.4
2022-08-28T09:38:07.536Z,19.6
2022-08-28T09:42:11.245Z,19.6
2022-08-28T09:44:16.252Z,19.3
2022-08-28T09:46:18.167Z,19.6
2022-08-28T09:50:21.789Z,19.2
2022-08-28T09:52:25.423Z,19.5
2022-08-28T09:54:25.492Z,19.8
2022-08-28T09:56:27.341Z,19.7
2022-08-28T10:00:34.232Z,20.1
2022-08-28T10:02:36.101Z,20.3
2022-08-28T10:03:38.596Z,20.3
2022-08-28T10:05:40.459Z,20.7
2022-08-28T10:07:42.294Z,21
2022-08-28T10:09:46.850Z,21.1
2022-08-28T10:11:49.154Z,20.6
2022-08-28T10:13:51.002Z,20.3
2022-08-28T10:17:54.701Z,19.8
2022-08-28T10:21:58.388Z,20.2
2022-08-28T10:26:05.245Z,20.5
2022-08-28T10:28:07.068Z,20.5
2022-08-28T10:30:12.485Z,20.8
2022-08-28T10:32:10.762Z,20.3
2022-08-28T10:34:12.593Z,20.1
2022-08-28T10:36:28.778Z,20.3
2022-08-28T10:38:16.291Z,20.3
2022-08-28T10:40:21.369Z,20.9
2022-08-28T10:42:23.142Z,20.9
2022-08-28T10:44:25.011Z,20.9
2022-08-28T10:46:27.488Z,20.8
2022-08-28T10:48:28.670Z,20.4
2022-08-28T10:50:30.492Z,20.7
2022-08-28T10:52:32.322Z,20.9
2022-08-28T10:54:37.344Z,20.9
2022-08-28T10:56:39.183Z,20.9
2022-08-28T10:58:41.008Z,21.4
2022-08-28T10:59:43.504Z,20.9
2022-08-28T11:03:47.193Z,20.8
2022-08-28T11:09:55.848Z,20.4
2022-08-28T11:12:01.801Z,20.8
2022-08-28T11:16:01.521Z,20.8
2022-08-28T11:18:03.327Z,21.1
2022-08-28T11:20:05.021Z,20.9
2022-08-28T11:22:10.027Z,20.7
2022-08-28T11:24:11.850Z,20.7
2022-08-28T11:26:13.729Z,21
2022-08-28T11:28:15.530Z,20.8
2022-08-28T11:30:17.464Z,20.5
2022-08-28T11:32:19.193Z,21.1
2022-08-28T11:34:21.037Z,21.2
2022-08-28T11:36:26.020Z,21.2
2022-08-28T11:38:27.867Z,21.4
2022-08-28T11:40:29.721Z,21.5
2022-08-28T11:42:31.544Z,21.2
2022-08-28T11:44:33.369Z,21.2
2022-08-28T11:46:35.244Z,20.9
2022-08-28T11:48:37.009Z,20.8
2022-08-28T11:50:42.028Z,20.5
2022-08-28T11:52:43.828Z,20.6
2022-08-28T11:55:48.179Z,21.3
2022-08-28T11:57:50.007Z,21.4
2022-08-28T11:59:51.822Z,21.4
2022-08-28T12:08:02.355Z,21.4
2022-08-28T12:12:05.927Z,21.7
2022-08-28T12:14:07.744Z,22
2022-08-28T12:16:09.615Z,21.5
2022-08-28T12:18:14.563Z,20.9
2022-08-28T12:20:16.369Z,21.1
2022-08-28T12:22:18.182Z,21
2022-08-28T12:24:20.017Z,20.9
2022-08-28T12:26:21.823Z,20.8
2022-08-28T12:28:23.641Z,20.8
2022-08-28T12:30:25.480Z,20.6
2022-08-28T12:32:30.464Z,20.8
2022-08-28T12:34:32.310Z,21.1
2022-08-28T12:36:34.114Z,21.3
2022-08-28T12:38:35.976Z,21.6
2022-08-28T12:40:37.968Z,21.6
2022-08-28T12:42:39.607Z,21.5
2022-08-28T12:44:41.455Z,22.1
2022-08-28T12:53:18.530Z,21
2022-08-28T12:55:24.164Z,21.2
2022-08-28T12:57:22.162Z,21.4
2022-08-28T12:59:27.770Z,21.7
2022-08-28T13:01:29.172Z,21.8
2022-08-28T13:05:32.606Z,21.8
2022-08-28T13:07:34.402Z,21.8
2022-08-28T13:11:38.067Z,21.7
2022-08-28T13:13:43.025Z,21.2
2022-08-28T13:15:46.400Z,21.2
2022-08-28T13:17:48.189Z,21.1
2022-08-28T13:19:49.978Z,21.1
2022-08-28T13:21:51.798Z,21.3
2022-08-28T13:23:53.613Z,21.3
2022-08-28T13:25:55.434Z,20.9
2022-08-28T13:28:00.423Z,20.9
2022-08-28T13:30:02.243Z,21.2
2022-08-28T13:32:04.081Z,21.1
2022-08-28T13:34:05.907Z,21.8
2022-08-28T13:36:07.875Z,21.5
2022-08-28T13:38:09.525Z,21.3
2022-08-28T13:40:30.206Z,21.2
2022-08-28T13:42:16.328Z,21.6
2022-08-28T13:44:18.168Z,21.6
2022-08-28T13:47:22.477Z,21.7
2022-08-28T13:49:24.292Z,21.9
2022-08-28T13:51:26.087Z,22.2
2022-08-28T13:53:27.913Z,22
2022-08-28T13:55:32.902Z,22.3
2022-08-28T13:57:36.401Z,22.4
2022-08-28T13:59:36.526Z,22.4
2022-08-28T14:01:42.227Z,22.6
2022-08-28T14:05:41.959Z,22.1
2022-08-28T14:07:44.993Z,22.3
2022-08-28T14:13:55.741Z,22.4
2022-08-28T14:15:54.177Z,22.2
2022-08-28T14:21:59.598Z,21.7
2022-08-28T14:28:08.198Z,21.7
2022-08-28T14:32:11.902Z,21.1
2022-08-28T14:34:13.644Z,22.2
2022-08-28T14:36:15.452Z,22.4
2022-08-28T14:38:20.422Z,22.5
2022-08-28T14:40:22.304Z,22.9
2022-08-28T14:42:24.047Z,22.6
2022-08-28T14:45:28.356Z,21.9
2022-08-28T14:47:30.166Z,21.7
2022-08-28T14:49:31.954Z,21.4
2022-08-28T14:51:36.941Z,21.6
2022-08-28T14:53:38.739Z,21.3
2022-08-28T14:55:40.570Z,21.8
2022-08-28T14:57:42.350Z,21.4
2022-08-28T14:59:44.184Z,21.3
2022-08-28T15:01:45.986Z,21.3
2022-08-28T15:03:47.872Z,21.1
2022-08-28T15:05:52.790Z,21
2022-08-28T15:07:54.611Z,20.7
2022-08-28T15:09:56.422Z,21.1
2022-08-28T15:11:58.228Z,21
2022-08-28T15:14:00.061Z,20.9
2022-08-28T15:16:01.927Z,21.3
2022-08-28T15:18:03.688Z,21.4
2022-08-28T15:20:08.699Z,21.6
2022-08-28T15:22:10.485Z,22.1
2022-08-28T15:24:12.314Z,22.2
2022-08-28T15:26:15.512Z,22.2
2022-08-28T15:28:15.942Z,21.8
2022-08-28T15:30:17.767Z,21.7
2022-08-28T15:32:19.578Z,21
2022-08-28T15:34:24.582Z,21
2022-08-28T15:36:26.383Z,20.7
2022-08-28T15:41:32.508Z,20.5
2022-08-28T15:45:36.187Z,20.4
2022-08-28T15:47:41.164Z,21
2022-08-28T15:49:44.668Z,21.3
2022-08-28T15:51:44.888Z,21.3
2022-08-28T15:53:46.617Z,21.6
2022-08-28T15:55:48.439Z,21.7
2022-08-28T15:57:50.260Z,21.7
2022-08-28T15:59:52.097Z,21.9
2022-08-28T16:01:57.132Z,21.7
2022-08-28T16:03:58.910Z,22.3
2022-08-28T16:06:00.725Z,21.9
2022-08-28T16:08:02.549Z,21.3
2022-08-28T16:10:04.382Z,21.1
2022-08-28T16:12:06.197Z,20.7
2022-08-28T16:14:08.015Z,20.6
2022-08-28T16:16:13.061Z,20.8
2022-08-28T16:18:15.147Z,20.6
2022-08-28T16:20:16.631Z,20.2
2022-08-28T16:22:18.468Z,20.3
2022-08-28T16:24:20.290Z,20.1
2022-08-28T16:26:22.121Z,20
2022-08-28T16:28:23.953Z,20
2022-08-28T16:30:28.937Z,20.2
2022-08-28T16:32:30.786Z,19.6
2022-08-28T16:34:32.624Z,20.4
2022-08-28T16:37:01.104Z,20.7
2022-08-28T16:39:04.067Z,21
2022-08-28T16:41:04.778Z,21.1
2022-08-28T16:43:09.800Z,21.2
2022-08-28T16:45:11.613Z,21.4
2022-08-28T16:47:13.501Z,21.6
2022-08-28T16:49:15.286Z,21.2
2022-08-28T16:51:17.103Z,21.2
2022-08-28T16:53:19.989Z,20.8
2022-08-28T16:55:20.781Z,20.9
2022-08-28T17:01:29.564Z,20.6
2022-08-28T17:03:31.302Z,20.6
2022-08-28T17:05:33.114Z,20.7
2022-08-28T17:07:34.957Z,20.4
2022-08-28T17:09:36.864Z,20.3
2022-08-28T17:11:41.774Z,20.2
2022-08-28T17:13:43.612Z,19.8
2022-08-28T17:19:49.122Z,19.7
2022-08-28T17:21:50.988Z,19.8
2022-08-28T17:23:52.773Z,19.4
2022-08-28T17:27:59.631Z,19.7
2022-08-28T17:30:01.509Z,19.5
2022-08-28T17:37:09.527Z,19.6
2022-08-28T17:43:18.232Z,19.7
2022-08-28T17:45:20.099Z,19.5
2022-08-28T17:47:27.408Z,19.4
2022-08-28T17:49:23.789Z,19.6
2022-08-28T17:51:42.802Z,19.5
2022-08-28T17:53:30.658Z,19.5
2022-08-28T17:55:32.524Z,19.3
2022-08-28T17:57:34.369Z,19.5
2022-08-28T18:01:38.126Z,19.3
2022-08-28T18:03:43.945Z,19.3
2022-08-28T18:05:41.793Z,19.1
2022-08-28T18:07:46.793Z,19.1
2022-08-28T18:09:48.650Z,19.1
2022-08-28T18:11:50.512Z,19
2022-08-28T18:13:52.379Z,18.9
2022-08-28T18:17:56.098Z,19.1
2022-08-28T18:19:58.314Z,18.8
2022-08-28T18:22:03.102Z,18.7
2022-08-28T18:24:04.870Z,18.7
2022-08-28T18:26:06.697Z,18.6
2022-08-28T18:27:09.206Z,18.9
2022-08-28T18:29:11.101Z,18.7
2022-08-28T18:33:14.828Z,18.7
2022-08-28T18:35:19.840Z,18.5
2022-08-28T18:37:21.701Z,18.6
2022-08-28T18:41:30.697Z,18.4
2022-08-28T18:45:29.187Z,18.2
2022-08-28T18:47:31.039Z,18.1
2022-08-28T18:49:36.088Z,18.2
2022-08-28T18:51:38.180Z,18.1
2022-08-28T18:53:43.143Z,17.9
2022-08-28T18:55:41.755Z,17.8
2022-08-28T19:09:59.514Z,17.5
2022-08-28T19:12:01.399Z,17.8
2022-08-28T19:14:03.676Z,17.7
2022-08-28T19:16:05.249Z,17.8
2022-08-28T19:18:10.195Z,17.6
2022-08-28T19:20:12.044Z,17.6
2022-08-28T19:22:13.966Z,17.7
2022-08-28T19:23:17.872Z,17.4
2022-08-28T19:25:23.324Z,17.3
2022-08-28T19:27:20.208Z,17.6
2022-08-28T19:29:22.075Z,17.4
2022-08-28T19:33:28.991Z,17.4
2022-08-28T19:37:32.774Z,17.3
2022-08-28T19:39:34.649Z,17.1
2022-08-28T19:41:36.540Z,17.1
2022-08-28T19:45:43.465Z,17
2022-08-28T19:47:45.343Z,17.2
2022-08-28T19:49:47.225Z,17
2022-08-28T19:51:49.119Z,17
2022-08-28T19:53:56.109Z,16.8
2022-08-28T19:55:52.901Z,17
2022-08-28T19:57:54.804Z,16.7
2022-08-28T19:59:59.822Z,16.7
2022-08-28T20:02:01.706Z,16.9
2022-08-28T20:06:05.508Z,16.8
2022-08-28T20:10:09.272Z,16.8
2022-08-28T20:14:16.246Z,16.4
2022-08-28T20:18:20.022Z,16.6
2022-08-28T20:20:48.590Z,16.3
2022-08-28T20:22:53.828Z,16.4
2022-08-28T20:24:52.381Z,16.5
2022-08-28T20:26:57.410Z,16.4
2022-08-28T20:28:59.336Z,16.2
2022-08-28T20:31:01.309Z,15.9
2022-08-28T20:33:03.130Z,16.4
2022-08-28T20:35:05.146Z,16.4
2022-08-28T20:37:07.107Z,16.4
2022-08-28T20:39:08.874Z,16
2022-08-28T20:41:13.920Z,16.1
2022-08-28T20:43:15.812Z,16.3
2022-08-28T20:45:17.716Z,16.1
2022-08-28T20:47:19.632Z,16.1
2022-08-28T20:51:23.436Z,15.9
2022-08-28T20:55:30.382Z,15.8
2022-08-28T20:57:32.264Z,15.8
2022-08-28T20:59:35.534Z,15.9
2022-08-28T21:01:36.114Z,15.9
2022-08-28T21:03:37.982Z,15.7
2022-08-28T21:05:41.213Z,15.7
2022-08-28T21:07:41.820Z,15.8
2022-08-28T21:10:05.806Z,15.6
2022-08-28T21:14:53.226Z,15.5
2022-08-28T21:16:55.266Z,15.7
2022-08-28T21:23:03.998Z,15.5
2022-08-28T21:25:05.914Z,15.7
2022-08-28T21:27:07.823Z,15.6
2022-08-28T21:29:09.740Z,15.5
2022-08-28T21:31:11.725Z,15.4
2022-08-28T21:33:13.572Z,15.4
2022-08-28T21:35:15.493Z,15.5
2022-08-28T21:37:20.549Z,15.3
2022-08-28T21:39:22.449Z,15.8
2022-08-28T21:41:24.384Z,15.2
2022-08-28T21:49:32.061Z,15.2
2022-08-28T21:51:37.111Z,15
2022-08-28T21:55:40.950Z,15.1
2022-08-28T21:57:42.886Z,15.1
2022-08-28T21:59:44.815Z,14.9
2022-08-28T22:01:46.746Z,15
2022-08-28T22:03:48.648Z,15.1
2022-08-28T22:05:53.693Z,15
2022-08-28T22:07:55.618Z,15.1
2022-08-28T22:11:00.075Z,14.7
2022-08-28T22:13:01.984Z,14.8
2022-08-28T22:15:03.900Z,14.8
2022-08-28T22:17:10.642Z,14.8
2022-08-28T22:19:10.889Z,15
2022-08-28T22:21:12.816Z,14.9
2022-08-28T22:23:14.770Z,14.9
2022-08-28T22:25:16.632Z,14.9
2022-08-28T22:27:18.570Z,14.7
2022-08-28T22:29:20.490Z,14.7
2022-08-28T22:31:22.442Z,14.9
2022-08-28T22:33:27.487Z,14.8
2022-08-28T22:35:29.411Z,14.6
2022-08-28T22:37:31.323Z,14.9
2022-08-28T22:39:33.253Z,14.9
2022-08-28T22:41:35.178Z,14.8
2022-08-28T22:45:39.100Z,14.6
2022-08-28T22:47:44.082Z,14.7
2022-08-28T22:51:47.925Z,14.6
2022-08-28T22:55:51.783Z,14.4
2022-08-28T22:59:55.634Z,14.6
2022-08-28T23:04:02.706Z,14.4
2022-08-28T23:06:04.584Z,14.3
2022-08-28T23:07:07.097Z,14.4
2022-08-28T23:09:09.018Z,14.4
2022-08-28T23:11:10.944Z,14.3
2022-08-28T23:13:13.466Z,14.2
2022-08-28T23:15:17.948Z,14.3
2022-08-28T23:17:19.884Z,14.3
2022-08-28T23:19:21.999Z,14.3
2022-08-28T23:21:23.736Z,14.3
2022-08-28T23:23:25.634Z,14.4
2022-08-28T23:25:27.556Z,14.2
2022-08-28T23:27:36.267Z,14.3
2022-08-28T23:29:34.534Z,14.4
2022-08-28T23:31:36.589Z,14.4
2022-08-28T23:45:53.124Z,13.9
2022-08-28T23:47:54.994Z,14.3
2022-08-28T23:49:56.912Z,13.8
2022-08-28T23:56:02.703Z,13.9
